Overview Statistics Trail Chart Weather Telemetry Raw packets
 

This is the latest recevied weather packets stored in our database for station/object CW79215. If no packets are shown the sender has not sent any weather packets the latest 10 day(s).

<< 26 27 28 29 30 31 32 >>
Time Temp. Humidity Pressure Rain* Wind** Luminosity Snow
1788084328 22.78° C 54% 1027 hPa - - - -
1788083428 22.78° C 54% 1027.1 hPa - - - -
1788082528 23.33° C 54% 1027 hPa - - - -
1788081627 24.44° C 52% 1027 hPa - - - -
1788080727 24.44° C 52% 1026.9 hPa - - - -
1788079826 22.78° C 56% 1027 hPa - - - -
1788078929 22.22° C 57% 1027.1 hPa - - - -
1788078042 21.11° C 62% 1027.2 hPa - - - -
1788077129 21.11° C 62% 1027.1 hPa - - - -
1788076229 20.56° C 65% 1027 hPa - - - -
1788075329 21.11° C 65% 1026.9 hPa - - - -
1788074429 20.56° C 67% 1026.8 hPa - - - -
1788073529 20.56° C 68% 1026.7 hPa - - - -
1788072629 19.44° C 71% 1026.7 hPa - - - -
1788071729 19.44° C 73% 1026.6 hPa - - - -
1788070829 18.89° C 75% 1026.6 hPa - - - -
1788069929 18.89° C 75% 1026.7 hPa - - - -
1788069028 18.33° C 77% 1026.7 hPa - - - -
1788068128 18.33° C 76% 1026.8 hPa - - - -
1788067228 17.78° C 78% 1026.7 hPa - - - -
1788066328 16.67° C 83% 1026.7 hPa - - - -
1788065428 16.67° C 83% 1026.6 hPa - - - -
1788064528 16.67° C 82% 1026.5 hPa - - - -
1788063628 16.67° C 86% 1026.4 hPa - - - -
1788062728 17.22° C 82% 1026.5 hPa - - - -

* Rain since midnight (hover to see other rain measurements)
** Current wind speed in m/s (hover to see current wind gust speed)